Time;durP1;ratioP1;P1;durP2;ratioP2;P2;SDS_P1;SDS_P2;PMS_P1;PMS_P2;Temp;Humidity;BMP_temperature;BMP_pressure;BME280_temperature;BME280_humidity;BME280_pressure;Samples;Min_cycle;Max_cycle;Signal;HPM_P1;HPM_P2
2022/07/30 00:01:38;;;;;;;0.10;0.10;;;14.50;99.90;;;;;;5033417;28;20165;-73
2022/07/30 00:04:04;;;;;;;0.32;0.32;;;14.50;99.90;;;;;;5051353;28;20041;-71
2022/07/30 00:06:30;;;;;;;;;;;14.40;99.90;;;;;;5050257;28;20040;-71
2022/07/30 00:08:55;;;;;;;0.30;0.30;;;14.40;99.90;;;;;;5050955;28;20011;-71
2022/07/30 00:11:21;;;;;;;0.25;0.25;;;14.30;99.90;;;;;;5050450;28;20049;-72
2022/07/30 00:13:47;;;;;;;;;;;14.30;99.90;;;;;;5053639;28;20048;-73
2022/07/30 00:16:12;;;;;;;0.63;0.63;;;14.30;99.90;;;;;;5052499;28;19967;-72
2022/07/30 00:18:38;;;;;;;0.20;0.20;;;14.20;99.90;;;;;;5058843;28;20494;-72
2022/07/30 00:21:04;;;;;;;0.30;0.30;;;14.30;99.90;;;;;;5052879;28;20053;-70
2022/07/30 00:23:31;;;;;;;0.38;0.38;;;14.30;99.90;;;;;;5061845;28;20044;-74
2022/07/30 00:25:57;;;;;;;0.25;0.25;;;14.40;99.90;;;;;;5051006;28;20076;-71
2022/07/30 00:28:23;;;;;;;0.35;0.35;;;14.80;99.90;;;;;;5053176;28;20056;-71
2022/07/30 00:30:49;;;;;;;0.40;0.40;;;14.20;99.90;;;;;;5055792;28;20029;-71
2022/07/30 00:33:14;;;;;;;;;;;14.20;99.90;;;;;;5055153;28;20502;-71
2022/07/30 00:35:40;;;;;;;0.68;0.68;;;14.20;99.90;;;;;;5035904;28;19917;-73
2022/07/30 00:38:05;;;;;;;0.63;0.63;;;14.20;99.90;;;;;;5031364;28;20038;-73
2022/07/30 00:40:31;;;;;;;;;;;14.10;99.90;;;;;;5047230;28;20049;-73
2022/07/30 00:42:57;;;;;;;0.40;0.40;;;14.20;99.90;;;;;;5030427;28;19927;-72
2022/07/30 00:45:22;;;;;;;;;;;14.10;99.90;;;;;;5050068;28;20131;-70
2022/07/30 00:47:48;;;;;;;0.30;0.30;;;14.10;99.90;;;;;;5033905;28;19920;-73
2022/07/30 00:50:14;;;;;;;0.45;0.45;;;14.00;99.90;;;;;;5048607;28;20402;-70
2022/07/30 00:52:41;;;;;;;0.40;0.40;;;14.00;99.90;;;;;;5048339;28;20037;-71
2022/07/30 00:55:09;;;;;;;0.30;0.30;;;13.80;99.90;;;;;;5047560;28;20068;-71
2022/07/30 00:57:35;;;;;;;0.43;0.43;;;13.40;99.90;;;;;;5046958;28;20051;-71
2022/07/30 01:00:01;;;;;;;0.30;0.30;;;14.00;99.90;;;;;;5051920;28;20112;-70
2022/07/30 01:02:27;;;;;;;;;;;13.80;99.90;;;;;;5047002;28;20029;-71
2022/07/30 01:04:52;;;;;;;0.28;0.28;;;13.80;99.90;;;;;;5053107;28;19986;-70
2022/07/30 01:07:18;;;;;;;0.40;0.40;;;13.70;99.90;;;;;;5052789;28;20041;-71
2022/07/30 01:09:44;;;;;;;0.30;0.30;;;13.70;99.90;;;;;;5053447;28;20092;-70
2022/07/30 01:12:11;;;;;;;0.30;0.30;;;13.70;99.90;;;;;;5049775;28;20375;-71
2022/07/30 01:14:37;;;;;;;0.30;0.30;;;13.60;99.90;;;;;;5052983;28;20041;-70
2022/07/30 01:17:03;;;;;;;;;;;13.70;99.90;;;;;;5054419;28;20128;-72
2022/07/30 01:19:54;;;;;;;0.40;0.40;;;13.60;99.90;;;;;;5054319;28;20300;-71
2022/07/30 01:22:29;;;;;;;0.28;0.28;;;13.60;99.90;;;;;;5051680;28;20385;-72
2022/07/30 01:25:16;;;;;;;0.30;0.30;;;13.60;99.90;;;;;;5052119;28;20051;-70
2022/07/30 01:27:44;;;;;;;;;;;13.60;99.90;;;;;;5053766;28;20482;-73
2022/07/30 01:30:13;;;;;;;0.70;0.38;;;13.50;99.90;;;;;;5049850;28;20558;-73
2022/07/30 01:32:41;;;;;;;0.40;0.40;;;13.50;99.90;;;;;;5054559;28;20033;-71
2022/07/30 01:35:09;;;;;;;0.30;0.30;;;13.50;99.90;;;;;;5054426;28;20048;-72
2022/07/30 01:37:36;;;;;;;0.22;0.22;;;13.70;99.90;;;;;;5051799;28;20033;-71
2022/07/30 01:40:03;;;;;;;0.30;0.30;;;13.50;99.90;;;;;;5054019;28;20036;-71
2022/07/30 01:42:30;;;;;;;0.38;0.38;;;13.80;99.90;;;;;;5052710;28;20047;-72
2022/07/30 01:44:58;;;;;;;0.40;0.40;;;13.50;99.90;;;;;;5051812;28;20052;-71
2022/07/30 01:47:24;;;;;;;0.40;0.40;;;13.50;99.90;;;;;;5052650;28;20041;-72
2022/07/30 01:49:50;;;;;;;;;;;13.40;99.90;;;;;;5058541;28;20044;-70
2022/07/30 01:52:21;;;;;;;0.20;0.20;;;13.50;99.90;;;;;;5052438;28;19974;-71
2022/07/30 01:54:51;;;;;;;0.30;0.30;;;13.40;99.90;;;;;;5056645;28;20036;-71
2022/07/30 01:57:19;;;;;;;0.45;0.45;;;13.20;99.90;;;;;;5053064;28;20435;-72
2022/07/30 01:59:50;;;;;;;0.40;0.40;;;13.30;99.90;;;;;;5055602;28;20508;-71
2022/07/30 02:02:16;;;;;;;0.32;0.32;;;13.10;99.90;;;;;;5050884;28;20049;-70
2022/07/30 02:04:42;;;;;;;0.50;0.50;;;13.40;99.90;;;;;;5053554;28;20123;-70
2022/07/30 02:07:07;;;;;;;0.38;0.38;;;13.20;99.90;;;;;;5059457;28;20873;-70
2022/07/30 02:09:40;;;;;;;0.30;0.30;;;13.20;99.90;;;;;;5049189;28;20049;-70
2022/07/30 02:12:28;;;;;;;0.30;0.30;;;13.20;99.90;;;;;;5043275;28;20060;-72
2022/07/30 02:15:05;;;;;;;0.40;0.40;;;13.20;99.90;;;;;;5061103;28;20091;-70
2022/07/30 02:17:42;;;;;;;0.43;0.43;;;13.20;99.90;;;;;;5054718;28;20032;-71
2022/07/30 02:20:13;;;;;;;0.30;0.30;;;13.20;99.90;;;;;;5053580;28;20059;-71
2022/07/30 02:22:41;;;;;;;0.40;0.40;;;13.20;99.90;;;;;;5054174;28;20045;-72
2022/07/30 02:25:09;;;;;;;0.30;0.30;;;13.10;99.90;;;;;;5056249;28;20049;-71
2022/07/30 02:27:39;;;;;;;0.55;0.55;;;13.20;99.90;;;;;;5054398;28;20040;-71
2022/07/30 02:30:05;;;;;;;0.30;0.30;;;13.00;99.90;;;;;;5051414;28;20115;-72
2022/07/30 02:32:37;;;;;;;0.40;0.40;;;13.10;99.90;;;;;;5054069;28;20033;-71
2022/07/30 02:35:10;;;;;;;0.32;0.32;;;13.10;99.90;;;;;;5053996;28;20037;-71
2022/07/30 02:37:38;;;;;;;0.40;0.40;;;13.10;99.90;;;;;;5033934;28;20127;-71
2022/07/30 02:40:04;;;;;;;0.50;0.50;;;13.10;99.90;;;;;;5051207;28;20037;-71
2022/07/30 02:42:31;;;;;;;0.32;0.32;;;13.10;99.90;;;;;;5052570;28;20047;-72
2022/07/30 02:44:58;;;;;;;0.30;0.30;;;13.10;99.90;;;;;;5046792;28;20052;-70
2022/07/30 02:47:26;;;;;;;0.70;0.45;;;13.00;99.90;;;;;;5048084;28;20045;-70
2022/07/30 02:49:54;;;;;;;0.35;0.35;;;13.00;99.90;;;;;;5047172;28;20048;-72
2022/07/30 02:52:21;;;;;;;0.40;0.40;;;13.00;99.90;;;;;;5035932;28;20036;-72
2022/07/30 02:54:49;;;;;;;0.55;0.55;;;13.10;99.90;;;;;;5046249;28;20067;-69
2022/07/30 02:57:18;;;;;;;0.35;0.35;;;12.90;99.90;;;;;;5050835;28;20116;-71
2022/07/30 02:59:45;;;;;;;0.40;0.40;;;13.00;99.90;;;;;;5053426;28;20048;-70
2022/07/30 03:02:12;;;;;;;0.25;0.25;;;12.90;99.90;;;;;;5047826;28;20463;-73
2022/07/30 03:04:39;;;;;;;0.40;0.40;;;12.90;99.90;;;;;;5052857;28;20036;-72
2022/07/30 03:07:05;;;;;;;0.30;0.30;;;13.00;99.90;;;;;;5053880;28;20079;-71
2022/07/30 03:09:32;;;;;;;;;;;13.00;99.90;;;;;;5050432;28;20578;-72
2022/07/30 03:12:00;;;;;;;0.43;0.43;;;13.00;99.90;;;;;;5054059;28;19921;-71
2022/07/30 03:14:26;;;;;;;0.30;0.30;;;13.10;99.90;;;;;;5053422;28;20488;-70
2022/07/30 03:16:56;;;;;;;0.40;0.40;;;13.00;99.90;;;;;;5051750;28;20041;-70
2022/07/30 03:19:23;;;;;;;0.60;0.60;;;13.00;99.90;;;;;;5051383;28;20413;-72
2022/07/30 03:21:50;;;;;;;0.43;0.43;;;13.00;99.90;;;;;;5053344;28;20044;-71
2022/07/30 03:24:17;;;;;;;0.40;0.40;;;13.20;99.90;;;;;;5060204;28;20047;-69
2022/07/30 03:26:45;;;;;;;0.22;0.22;;;13.30;99.90;;;;;;5051220;28;20095;-70
2022/07/30 03:29:12;;;;;;;0.50;0.50;;;13.20;99.90;;;;;;5049971;28;20094;-72
2022/07/30 03:31:39;;;;;;;0.30;0.30;;;13.20;99.90;;;;;;5050009;28;20041;-70
2022/07/30 03:34:08;;;;;;;0.20;0.20;;;13.10;99.90;;;;;;5055159;28;20033;-71
2022/07/30 03:36:35;;;;;;;0.35;0.35;;;13.20;99.90;;;;;;5048223;28;20052;-71
2022/07/30 03:39:03;;;;;;;0.70;0.70;;;13.10;99.90;;;;;;5050759;28;20135;-72
2022/07/30 03:41:31;;;;;;;0.30;0.30;;;13.10;99.90;;;;;;5050208;28;20037;-71
2022/07/30 03:43:57;;;;;;;0.30;0.30;;;13.00;99.90;;;;;;5052556;28;20509;-71
2022/07/30 03:46:24;;;;;;;0.35;0.35;;;12.90;99.90;;;;;;5063967;28;20488;-72
2022/07/30 03:48:50;;;;;;;;;;;12.80;99.90;;;;;;5051073;28;20052;-71
2022/07/30 03:51:17;;;;;;;0.40;0.40;;;13.00;99.90;;;;;;5049653;28;19994;-72
2022/07/30 03:53:44;;;;;;;0.40;0.40;;;13.00;99.90;;;;;;5047043;28;20170;-71
2022/07/30 03:56:11;;;;;;;0.30;0.30;;;12.90;99.90;;;;;;5051488;28;20071;-72
2022/07/30 03:58:37;;;;;;;0.88;0.88;;;12.90;99.90;;;;;;5049272;28;20106;-71
2022/07/30 04:01:03;;;;;;;0.50;0.50;;;12.70;99.90;;;;;;5066783;28;20188;-71
2022/07/30 04:03:31;;;;;;;0.95;0.95;;;12.90;99.90;;;;;;5048788;28;20049;-72
2022/07/30 04:05:57;;;;;;;0.70;0.70;;;12.80;99.90;;;;;;5056146;28;20040;-72
2022/07/30 04:08:23;;;;;;;0.50;0.50;;;12.80;99.90;;;;;;5045913;28;20599;-73
2022/07/30 04:10:50;;;;;;;0.40;0.40;;;12.80;99.90;;;;;;5052892;28;20375;-71
2022/07/30 04:13:16;;;;;;;0.70;0.70;;;13.10;99.90;;;;;;5047318;28;20067;-71
2022/07/30 04:15:54;;;;;;;0.50;0.50;;;12.90;99.90;;;;;;5051914;28;20138;-71
2022/07/30 04:18:23;;;;;;;0.30;0.30;;;13.00;99.90;;;;;;5052294;28;20107;-72
2022/07/30 04:20:50;;;;;;;0.30;0.30;;;13.30;99.90;;;;;;5055231;28;20394;-72
2022/07/30 04:23:18;;;;;;;0.70;0.70;;;13.20;99.90;;;;;;5052868;28;20037;-70
2022/07/30 04:25:45;;;;;;;0.40;0.40;;;13.30;99.90;;;;;;5050567;28;20065;-72
2022/07/30 04:28:12;;;;;;;0.50;0.50;;;13.40;99.90;;;;;;5063095;28;20047;-71
2022/07/30 04:30:39;;;;;;;0.47;0.47;;;13.50;99.90;;;;;;5051507;28;20057;-70
2022/07/30 04:33:07;;;;;;;0.20;0.20;;;13.40;99.90;;;;;;5052189;28;20041;-69
2022/07/30 04:35:34;;;;;;;0.30;0.30;;;13.40;99.90;;;;;;5047654;28;20045;-69
2022/07/30 04:38:02;;;;;;;0.40;0.40;;;13.40;99.90;;;;;;5049284;28;20037;-71
2022/07/30 04:40:30;;;;;;;0.32;0.32;;;13.30;99.90;;;;;;5051028;28;20053;-72
2022/07/30 04:42:56;;;;;;;0.28;0.28;;;13.40;99.90;;;;;;5048841;28;20040;-71
2022/07/30 04:45:22;;;;;;;0.30;0.30;;;13.60;99.90;;;;;;5049785;28;20071;-71
2022/07/30 04:47:47;;;;;;;0.35;0.35;;;13.40;99.90;;;;;;5054847;28;20049;-72
2022/07/30 04:50:14;;;;;;;;;;;13.40;99.90;;;;;;5047254;28;20048;-70
2022/07/30 04:52:41;;;;;;;0.30;0.30;;;13.40;99.90;;;;;;5051640;28;20333;-72
2022/07/30 04:55:09;;;;;;;0.43;0.43;;;13.40;99.90;;;;;;5054043;28;20044;-71
2022/07/30 04:57:37;;;;;;;0.30;0.30;;;13.50;99.90;;;;;;5052278;28;20448;-72
2022/07/30 05:00:05;;;;;;;0.30;0.30;;;13.60;99.90;;;;;;5051327;28;20045;-72
2022/07/30 05:02:32;;;;;;;0.30;0.30;;;13.70;99.90;;;;;;5047578;28;20099;-72
2022/07/30 05:04:59;;;;;;;0.30;0.30;;;13.80;99.90;;;;;;5047104;28;20029;-72
2022/07/30 05:07:26;;;;;;;0.40;0.40;;;13.80;99.90;;;;;;5049043;28;20056;-70
2022/07/30 05:09:52;;;;;;;0.30;0.30;;;13.90;99.90;;;;;;5047246;28;20108;-71
2022/07/30 05:12:17;;;;;;;0.80;0.55;;;13.90;99.90;;;;;;5048933;28;20467;-72
2022/07/30 05:14:43;;;;;;;0.30;0.30;;;14.00;99.90;;;;;;5045753;28;20041;-72
2022/07/30 05:17:09;;;;;;;;;;;14.10;99.90;;;;;;5061562;28;20474;-73
2022/07/30 05:19:34;;;;;;;0.20;0.20;;;14.20;99.90;;;;;;5051004;28;20293;-73
2022/07/30 05:22:00;;;;;;;;;;;14.30;99.90;;;;;;5041959;28;20037;-72
2022/07/30 05:24:26;;;;;;;0.45;0.45;;;14.50;99.90;;;;;;5045915;28;19938;-72
2022/07/30 05:26:52;;;;;;;0.38;0.38;;;14.70;99.90;;;;;;5045168;28;20052;-72
2022/07/30 05:29:17;;;;;;;;;;;14.60;99.90;;;;;;5043873;28;20124;-71
2022/07/30 05:31:43;;;;;;;0.30;0.30;;;14.80;99.90;;;;;;5049129;28;20081;-72
2022/07/30 05:34:08;;;;;;;0.20;0.20;;;14.90;99.90;;;;;;5052558;28;20049;-72
2022/07/30 05:36:34;;;;;;;0.47;0.47;;;15.00;99.90;;;;;;5055481;28;20390;-72
2022/07/30 05:39:00;;;;;;;0.30;0.30;;;15.00;99.90;;;;;;5060109;28;20063;-72
2022/07/30 05:41:29;;;;;;;;;;;15.30;99.90;;;;;;5048709;28;20043;-71
2022/07/30 05:43:55;;;;;;;0.40;0.40;;;15.30;99.90;;;;;;5055216;28;19921;-72
2022/07/30 05:46:21;;;;;;;0.30;0.30;;;15.40;99.90;;;;;;5046765;28;20045;-73
2022/07/30 05:48:47;;;;;;;;;;;15.40;99.90;;;;;;5048753;28;20397;-73
2022/07/30 05:51:13;;;;;;;0.20;0.20;;;15.70;99.90;;;;;;5052421;28;19943;-72
2022/07/30 05:53:39;;;;;;;;;;;15.80;99.90;;;;;;5052815;28;20108;-71
2022/07/30 05:56:04;;;;;;;0.30;0.30;;;15.80;99.90;;;;;;5064101;28;19916;-72
2022/07/30 05:58:30;;;;;;;0.63;0.50;;;15.90;99.90;;;;;;5061534;28;20091;-72
2022/07/30 06:00:56;;;;;;;0.85;0.85;;;16.20;99.90;;;;;;5043868;28;20067;-72
2022/07/30 06:03:21;;;;;;;1.05;0.60;;;16.40;99.90;;;;;;5034823;28;20386;-72
2022/07/30 06:05:47;;;;;;;;;;;16.50;99.90;;;;;;5051796;28;20040;-72
2022/07/30 06:08:13;;;;;;;0.60;0.60;;;16.70;99.90;;;;;;5050445;28;19924;-72
2022/07/30 06:10:38;;;;;;;;;;;16.70;99.90;;;;;;5044637;28;20116;-72
2022/07/30 06:13:04;;;;;;;1.45;0.73;;;16.70;99.90;;;;;;5048535;28;19920;-72
2022/07/30 06:15:30;;;;;;;1.02;0.95;;;16.80;99.90;;;;;;5052186;28;20047;-72
2022/07/30 06:17:55;;;;;;;;;;;16.90;99.90;;;;;;5049588;28;20496;-73
2022/07/30 06:20:21;;;;;;;0.90;0.82;;;16.90;99.90;;;;;;5051236;28;19917;-71
2022/07/30 06:22:47;;;;;;;1.48;1.38;;;16.90;99.90;;;;;;5049419;28;20130;-72
2022/07/30 06:25:12;;;;;;;1.13;1.02;;;17.30;99.90;;;;;;5038923;28;20462;-72
2022/07/30 06:27:38;;;;;;;;;;;17.10;99.90;;;;;;5049754;28;20045;-72
2022/07/30 06:30:07;;;;;;;0.40;0.40;;;17.30;99.90;;;;;;5046789;28;19920;-73
2022/07/30 06:32:33;;;;;;;1.45;0.60;;;17.30;99.90;;;;;;5045157;28;20048;-72
2022/07/30 06:34:59;;;;;;;0.98;0.70;;;17.30;99.90;;;;;;5050286;28;20398;-72
2022/07/30 06:37:25;;;;;;;0.80;0.80;;;17.30;99.90;;;;;;5051053;28;20040;-72
2022/07/30 06:39:51;;;;;;;;;;;17.40;99.90;;;;;;5051230;28;20040;-73
2022/07/30 06:42:16;;;;;;;0.65;0.57;;;17.60;99.90;;;;;;5050085;28;19927;-72
2022/07/30 06:44:42;;;;;;;;;;;17.80;99.90;;;;;;5034788;28;20048;-72
2022/07/30 06:47:08;;;;;;;0.73;0.73;;;17.80;99.90;;;;;;5050343;28;19929;-72
2022/07/30 06:49:34;;;;;;;;;;;17.80;99.90;;;;;;5050624;28;20098;-72
2022/07/30 06:52:02;;;;;;;0.70;0.70;;;17.80;99.90;;;;;;5049761;28;19917;-71
2022/07/30 06:54:28;;;;;;;1.15;1.05;;;17.90;99.90;;;;;;5048649;28;20032;-73
2022/07/30 06:56:53;;;;;;;;;;;18.10;99.90;;;;;;5052353;28;20048;-73
2022/07/30 06:59:19;;;;;;;3.38;1.30;;;18.10;99.90;;;;;;5053288;28;19923;-73
2022/07/30 07:01:45;;;;;;;;;;;18.30;99.90;;;;;;5046719;28;20041;-72
2022/07/30 07:04:11;;;;;;;0.82;0.82;;;18.20;99.90;;;;;;5045472;28;19925;-72
2022/07/30 07:06:37;;;;;;;1.52;1.42;;;18.50;99.90;;;;;;5067269;28;20040;-72
2022/07/30 07:09:03;;;;;;;0.77;0.77;;;18.60;99.90;;;;;;5050684;28;20437;-73
2022/07/30 07:11:29;;;;;;;0.65;0.65;;;18.80;99.90;;;;;;5050195;28;20103;-73
2022/07/30 07:13:55;;;;;;;0.35;0.35;;;18.90;99.90;;;;;;5071715;28;20485;-71
2022/07/30 07:16:24;;;;;;;;;;;18.80;99.90;;;;;;5053207;28;20051;-74
2022/07/30 07:18:51;;;;;;;0.80;0.80;;;18.90;99.90;;;;;;5049586;28;19916;-73
2022/07/30 07:21:17;;;;;;;1.20;1.10;;;19.10;99.90;;;;;;5052394;28;20087;-72
2022/07/30 07:23:43;;;;;;;0.52;0.52;;;19.10;99.90;;;;;;5050533;28;20037;-72
2022/07/30 07:26:10;;;;;;;;;;;19.20;99.90;;;;;;5051963;28;20053;-72
2022/07/30 07:28:35;;;;;;;0.45;0.45;;;19.20;99.90;;;;;;5049956;28;19924;-72
2022/07/30 07:31:01;;;;;;;;;;;19.20;99.90;;;;;;5051320;28;20036;-73
2022/07/30 07:33:27;;;;;;;0.63;0.60;;;19.50;99.90;;;;;;5048802;28;19917;-72
2022/07/30 07:35:54;;;;;;;0.47;0.47;;;19.50;99.90;;;;;;5051908;28;20485;-73
2022/07/30 07:38:21;;;;;;;0.95;0.95;;;19.90;99.90;;;;;;5056701;28;20052;-72
2022/07/30 07:40:46;;;;;;;0.57;0.57;;;19.80;99.90;;;;;;5054142;28;20037;-72
2022/07/30 07:43:13;;;;;;;1.38;1.27;;;20.10;99.90;;;;;;5069207;28;20051;-72
2022/07/30 07:45:40;;;;;;;0.52;0.52;;;20.20;99.90;;;;;;5050572;28;20082;-73
2022/07/30 07:48:06;;;;;;;0.40;0.40;;;20.00;99.90;;;;;;5056131;28;20037;-73
2022/07/30 07:50:32;;;;;;;0.40;0.40;;;20.20;99.90;;;;;;5058884;28;20047;-72
2022/07/30 07:52:58;;;;;;;;;;;20.30;99.90;;;;;;5070963;28;20049;-72
2022/07/30 07:55:23;;;;;;;0.20;0.20;;;20.40;99.90;;;;;;5061625;28;19920;-74
2022/07/30 07:57:49;;;;;;;;;;;20.50;99.90;;;;;;5049667;28;20413;-71
2022/07/30 08:00:16;;;;;;;0.88;0.88;;;20.60;99.90;;;;;;5056635;28;20456;-72
2022/07/30 08:02:42;;;;;;;0.95;0.95;;;20.70;99.90;;;;;;5058066;28;20041;-72
2022/07/30 08:05:09;;;;;;;1.65;1.38;;;20.80;99.90;;;;;;5052396;28;20368;-72
2022/07/30 08:07:35;;;;;;;0.40;0.40;;;21.00;99.90;;;;;;5063981;28;20481;-71
2022/07/30 08:10:01;;;;;;;0.80;0.80;;;20.90;99.90;;;;;;5052388;28;20116;-72
2022/07/30 08:12:27;;;;;;;0.70;0.55;;;21.30;99.90;;;;;;5053601;28;20235;-72
2022/07/30 08:14:52;;;;;;;;;;;21.40;99.90;;;;;;5051681;28;20386;-71
2022/07/30 08:17:18;;;;;;;1.65;1.55;;;21.40;99.90;;;;;;5050584;28;19923;-70
2022/07/30 08:19:45;;;;;;;0.30;0.30;;;21.50;99.90;;;;;;5050893;28;20444;-71
2022/07/30 08:22:11;;;;;;;0.52;0.50;;;21.20;99.90;;;;;;5054550;28;20040;-71
2022/07/30 08:24:37;;;;;;;0.50;0.50;;;21.20;99.90;;;;;;5052880;28;20120;-73
2022/07/30 08:27:03;;;;;;;0.40;0.40;;;21.10;99.90;;;;;;5051683;28;20128;-73
2022/07/30 08:29:28;;;;;;;;;;;21.10;99.90;;;;;;5052987;28;20045;-71
2022/07/30 08:31:54;;;;;;;0.45;0.45;;;21.50;99.90;;;;;;5049683;28;19925;-73
2022/07/30 08:34:20;;;;;;;;;;;21.60;99.90;;;;;;5049759;28;20047;-72
2022/07/30 08:36:46;;;;;;;2.38;2.25;;;21.50;99.90;;;;;;5044672;28;20333;-71
2022/07/30 08:39:12;;;;;;;0.47;0.47;;;21.60;99.90;;;;;;5052265;28;20057;-71
2022/07/30 08:41:38;;;;;;;0.52;0.43;;;21.30;99.90;;;;;;5050885;28;20044;-72
2022/07/30 08:44:07;;;;;;;;;;;21.60;99.90;;;;;;5051647;28;20119;-71
2022/07/30 08:46:35;;;;;;;0.80;0.80;;;21.80;99.90;;;;;;5051784;28;20401;-72
2022/07/30 08:49:01;;;;;;;0.85;0.85;;;21.90;99.90;;;;;;5050059;28;20455;-71
2022/07/30 08:51:27;;;;;;;0.43;0.43;;;21.60;99.90;;;;;;5052414;28;20490;-71
2022/07/30 08:53:55;;;;;;;1.02;0.82;;;21.80;99.90;;;;;;5051489;28;20362;-72
2022/07/30 08:56:21;;;;;;;0.73;0.73;;;22.00;99.90;;;;;;5051636;28;20122;-71
2022/07/30 08:58:48;;;;;;;0.35;0.35;;;22.00;99.90;;;;;;5051768;28;20049;-73
2022/07/30 09:01:14;;;;;;;0.60;0.60;;;21.80;99.90;;;;;;5052613;28;20051;-72
2022/07/30 09:03:40;;;;;;;0.43;0.43;;;21.70;99.90;;;;;;5050384;28;20041;-71
2022/07/30 09:06:06;;;;;;;1.27;1.20;;;22.10;99.90;;;;;;5062009;28;20060;-71
2022/07/30 09:08:31;;;;;;;0.60;0.60;;;22.00;99.90;;;;;;5049859;28;20048;-72
2022/07/30 09:10:58;;;;;;;0.32;0.32;;;22.20;99.90;;;;;;5060954;28;20482;-71
2022/07/30 09:13:36;;;;;;;2.15;1.25;;;22.10;99.90;;;;;;5049856;28;20045;-72
2022/07/30 09:16:04;;;;;;;0.30;0.30;;;22.30;99.90;;;;;;5051749;28;20474;-71
2022/07/30 09:18:34;;;;;;;0.57;0.57;;;22.00;99.90;;;;;;5050168;28;20056;-72
2022/07/30 09:21:16;;;;;;;2.42;0.60;;;22.10;99.90;;;;;;5048437;28;20051;-71
2022/07/30 09:24:01;;;;;;;0.85;0.57;;;22.20;99.90;;;;;;5034245;28;20037;-72
2022/07/30 09:26:28;;;;;;;0.50;0.50;;;22.40;99.90;;;;;;5049695;28;20053;-72
2022/07/30 09:29:15;;;;;;;5.68;0.75;;;22.50;99.90;;;;;;5054305;28;20509;-71
2022/07/30 09:32:01;;;;;;;0.30;0.30;;;22.70;99.90;;;;;;5054341;28;20486;-71
2022/07/30 09:34:30;;;;;;;0.50;0.50;;;23.00;99.90;;;;;;5047045;28;20443;-72
2022/07/30 09:36:58;;;;;;;1.77;1.38;;;22.80;99.90;;;;;;5048765;28;20041;-71
2022/07/30 09:39:31;;;;;;;0.63;0.45;;;22.90;99.90;;;;;;5068150;28;20490;-72
2022/07/30 09:41:57;;;;;;;0.38;0.38;;;23.00;99.90;;;;;;5066327;28;20359;-72
2022/07/30 09:44:25;;;;;;;1.55;0.82;;;22.90;99.90;;;;;;5053714;28;20047;-73
2022/07/30 09:46:51;;;;;;;0.40;0.40;;;22.80;99.90;;;;;;5052496;28;20474;-72
2022/07/30 09:49:19;;;;;;;0.50;0.45;;;23.00;99.90;;;;;;5053601;28;20048;-71
2022/07/30 09:51:46;;;;;;;0.43;0.43;;;23.30;99.90;;;;;;5054053;28;20041;-70
2022/07/30 09:54:11;;;;;;;0.50;0.50;;;23.30;99.90;;;;;;5067450;28;20045;-70
2022/07/30 09:56:38;;;;;;;0.20;0.20;;;23.30;99.90;;;;;;5053883;28;20047;-71
2022/07/30 09:59:05;;;;;;;0.30;0.30;;;23.40;99.90;;;;;;5061429;28;20048;-71
2022/07/30 10:01:51;;;;;;;0.40;0.40;;;23.30;99.90;;;;;;5065944;28;20037;-71
2022/07/30 10:04:28;;;;;;;0.60;0.60;;;23.20;99.90;;;;;;5051570;28;20045;-72
2022/07/30 10:06:54;;;;;;;1.33;1.23;;;23.00;99.90;;;;;;5055742;28;20059;-70
2022/07/30 10:09:31;;;;;;;0.40;0.40;;;22.90;99.90;;;;;;5054920;28;20190;-72
2022/07/30 10:12:03;;;;;;;0.40;0.40;;;22.90;99.90;;;;;;5054392;28;20122;-71
2022/07/30 10:14:33;;;;;;;0.30;0.30;;;23.00;99.90;;;;;;5059821;28;20044;-72
2022/07/30 10:16:59;;;;;;;0.40;0.40;;;23.10;99.90;;;;;;5048504;28;20086;-71
2022/07/30 10:19:25;;;;;;;1.08;0.43;;;23.30;99.90;;;;;;5052474;28;20088;-73
2022/07/30 10:21:55;;;;;;;0.50;0.50;;;23.30;99.90;;;;;;5053711;28;20095;-71
2022/07/30 10:24:21;;;;;;;0.75;0.75;;;23.60;99.90;;;;;;5053758;28;20116;-70
2022/07/30 10:26:49;;;;;;;0.93;0.93;;;23.60;99.90;;;;;;5050950;28;20053;-70
2022/07/30 10:29:16;;;;;;;1.33;1.23;;;23.40;99.90;;;;;;5052945;28;20129;-71
2022/07/30 10:31:47;;;;;;;0.40;0.40;;;23.50;99.90;;;;;;5055461;28;20491;-70
2022/07/30 10:34:15;;;;;;;1.13;1.02;;;23.60;99.90;;;;;;5052770;28;20037;-72
2022/07/30 10:36:43;;;;;;;0.57;0.57;;;23.60;99.90;;;;;;5053110;28;20090;-71
2022/07/30 10:39:14;;;;;;;0.57;0.55;;;23.90;99.90;;;;;;5061048;28;20071;-70
2022/07/30 10:41:45;;;;;;;1.73;1.13;;;24.00;99.90;;;;;;5063177;28;20163;-71
2022/07/30 10:44:42;;;;;;;0.60;0.60;;;24.20;99.90;;;;;;5059210;28;20052;-69
2022/07/30 10:47:12;;;;;;;0.53;0.53;;;24.40;99.90;;;;;;5059751;28;20045;-73
2022/07/30 10:49:39;;;;;;;0.25;0.25;;;24.60;99.90;;;;;;5051333;28;20639;-71
2022/07/30 10:52:05;;;;;;;0.75;0.43;;;24.70;99.90;;;;;;5056886;28;20037;-71
2022/07/30 10:54:39;;;;;;;1.23;1.13;;;24.80;99.90;;;;;;5065276;28;20040;-71
2022/07/30 10:57:13;;;;;;;0.90;0.82;;;24.80;99.90;;;;;;5066086;28;20040;-74
2022/07/30 10:59:51;;;;;;;2.50;0.75;;;24.70;99.90;;;;;;5052486;28;20068;-71
2022/07/30 11:02:18;;;;;;;0.38;0.38;;;24.70;99.90;;;;;;5050524;28;20049;-71
2022/07/30 11:04:45;;;;;;;1.35;0.57;;;24.70;99.90;;;;;;5051198;28;20052;-72
2022/07/30 11:07:22;;;;;;;1.13;0.65;;;24.60;99.90;;;;;;5055357;28;20053;-70
2022/07/30 11:09:56;;;;;;;0.63;0.63;;;24.60;99.90;;;;;;5050627;28;20487;-71
2022/07/30 11:12:40;;;;;;;0.43;0.43;;;24.30;99.90;;;;;;5054665;28;20044;-72
2022/07/30 11:15:14;;;;;;;2.55;2.03;;;24.00;99.90;;;;;;5053020;28;20047;-71
2022/07/30 11:18:07;;;;;;;0.30;0.30;;;24.10;99.90;;;;;;5052770;28;20107;-71
2022/07/30 11:20:34;;;;;;;0.65;0.40;;;24.40;99.90;;;;;;5042900;28;20037;-72
2022/07/30 11:23:11;;;;;;;0.30;0.30;;;24.50;99.90;;;;;;5040114;28;20054;-69
2022/07/30 11:25:37;;;;;;;0.50;0.50;;;24.50;99.90;;;;;;5051757;28;20053;-70
2022/07/30 11:28:03;;;;;;;0.50;0.50;;;24.60;99.90;;;;;;5048393;28;20120;-71
2022/07/30 11:30:28;;;;;;;0.80;0.47;;;24.80;99.90;;;;;;5050289;28;20125;-69
2022/07/30 11:33:03;;;;;;;0.60;0.60;;;24.90;99.90;;;;;;5051867;28;20029;-69
2022/07/30 11:35:30;;;;;;;0.93;0.57;;;25.30;99.90;;;;;;5049229;28;20512;-70
2022/07/30 11:38:07;;;;;;;0.20;0.20;;;25.40;99.90;;;;;;5055680;28;20058;-71
2022/07/30 11:40:44;;;;;;;0.28;0.28;;;25.60;99.90;;;;;;5063965;28;20534;-70
2022/07/30 11:43:23;;;;;;;0.73;0.73;;;25.80;99.90;;;;;;5051263;28;20037;-72
2022/07/30 11:46:03;;;;;;;2.78;1.13;;;26.00;99.90;;;;;;5059980;28;20391;-72
2022/07/30 11:48:30;;;;;;;0.45;0.45;;;26.10;99.90;;;;;;5044917;28;20130;-70
2022/07/30 11:50:56;;;;;;;0.45;0.43;;;26.00;99.90;;;;;;5058596;28;20046;-72
2022/07/30 11:53:22;;;;;;;1.38;0.73;;;26.10;99.90;;;;;;5058004;28;20148;-72
2022/07/30 11:55:57;;;;;;;0.17;0.17;;;26.20;99.90;;;;;;5055139;28;20084;-72
2022/07/30 11:58:35;;;;;;;0.20;0.20;;;26.40;99.90;;;;;;5052450;28;20091;-71
2022/07/30 12:01:11;;;;;;;0.63;0.63;;;26.40;99.90;;;;;;5051803;28;20041;-73
2022/07/30 12:03:42;;;;;;;0.43;0.43;;;26.20;99.90;;;;;;5042276;28;20120;-71
2022/07/30 12:06:16;;;;;;;0.30;0.30;;;26.20;99.90;;;;;;5045749;28;20296;-71
2022/07/30 12:08:50;;;;;;;0.80;0.80;;;26.00;99.90;;;;;;5052391;28;20090;-71
2022/07/30 12:11:16;;;;;;;0.52;0.40;;;25.60;99.90;;;;;;5051421;28;20041;-71
2022/07/30 12:13:43;;;;;;;0.65;0.65;;;25.40;99.90;;;;;;5052823;28;20105;-70
2022/07/30 12:16:11;;;;;;;0.73;0.73;;;25.40;99.90;;;;;;5048410;28;20490;-71
2022/07/30 12:18:37;;;;;;;0.47;0.47;;;25.40;99.90;;;;;;5051397;28;20052;-71
2022/07/30 12:21:10;;;;;;;0.40;0.40;;;25.20;99.90;;;;;;5051605;28;20040;-71
2022/07/30 12:23:37;;;;;;;0.25;0.25;;;25.10;99.90;;;;;;5047384;28;20422;-70
2022/07/30 12:26:03;;;;;;;0.82;0.82;;;25.10;99.90;;;;;;5049258;28;20049;-71
2022/07/30 12:28:32;;;;;;;0.30;0.30;;;25.30;99.90;;;;;;5051240;28;20044;-71
2022/07/30 12:30:59;;;;;;;0.25;0.25;;;25.60;99.90;;;;;;5042538;28;20080;-71
2022/07/30 12:33:25;;;;;;;0.82;0.75;;;25.90;99.90;;;;;;5048684;28;20041;-70
2022/07/30 12:35:53;;;;;;;0.60;0.60;;;26.30;99.90;;;;;;5050001;28;20402;-71
2022/07/30 12:38:21;;;;;;;0.73;0.73;;;26.20;99.90;;;;;;5050280;28;20052;-71
2022/07/30 12:40:56;;;;;;;0.50;0.50;;;26.00;99.90;;;;;;5050758;28;20397;-70
2022/07/30 12:43:41;;;;;;;0.28;0.28;;;25.70;99.90;;;;;;5051019;28;20124;-70
2022/07/30 12:46:06;;;;;;;0.55;0.55;;;25.40;99.90;;;;;;5051074;28;20041;-70
2022/07/30 12:48:32;;;;;;;0.30;0.30;;;25.20;99.90;;;;;;5049923;28;20041;-70
2022/07/30 12:51:09;;;;;;;0.30;0.30;;;24.80;99.90;;;;;;5044920;28;20068;-70
2022/07/30 12:53:35;;;;;;;0.35;0.35;;;24.70;99.90;;;;;;5050730;28;20596;-70
2022/07/30 12:56:15;;;;;;;0.30;0.30;;;24.70;99.90;;;;;;5049953;28;20510;-70
2022/07/30 12:58:41;;;;;;;0.52;0.52;;;25.00;99.90;;;;;;5051212;28;20072;-70
2022/07/30 13:01:08;;;;;;;0.60;0.60;;;25.40;99.90;;;;;;5053600;28;20154;-70